Time;durP1;ratioP1;P1;durP2;ratioP2;P2;SDS_P1;SDS_P2;PMS_P1;PMS_P2;Temp;Humidity;BMP_temperature;BMP_pressure;BME280_temperature;BME280_humidity;BME280_pressure;Samples;Min_cycle;Max_cycle;Signal;HPM_P1;HPM_P2
2022/03/06 00:02:19;;;;;;;12.87;7.13;;;3.70;99.90;;;;;;4856196;29;20604;-82
2022/03/06 00:05:05;;;;;;;8.20;5.67;;;3.70;99.90;;;;;;4871057;29;20449;-83
2022/03/06 00:08:09;;;;;;;9.07;5.37;;;3.50;99.90;;;;;;4870872;29;20395;-82
2022/03/06 00:10:54;;;;;;;7.20;4.53;;;3.50;99.90;;;;;;4870057;29;20529;-82
2022/03/06 00:13:38;;;;;;;7.47;5.00;;;3.50;99.90;;;;;;4880574;29;20399;-80
2022/03/06 00:16:23;;;;;;;6.83;4.60;;;3.50;99.90;;;;;;4876327;29;20399;-82
2022/03/06 00:19:07;;;;;;;9.07;5.30;;;3.90;99.90;;;;;;4870775;29;20378;-82
2022/03/06 00:21:52;;;;;;;6.70;4.87;;;4.10;99.90;;;;;;4870989;29;20421;-84
2022/03/06 00:24:36;;;;;;;9.50;6.50;;;4.20;99.90;;;;;;4871622;29;20395;-82
2022/03/06 00:27:21;;;;;;;10.20;6.07;;;4.30;99.90;;;;;;4871255;29;20904;-81
2022/03/06 00:30:06;;;;;;;9.33;5.97;;;4.30;99.90;;;;;;4870359;29;20836;-82
2022/03/06 00:32:52;;;;;;;9.67;6.10;;;4.30;99.90;;;;;;4870291;29;20957;-81
2022/03/06 00:35:36;;;;;;;7.13;6.13;;;4.20;99.90;;;;;;4856325;29;20451;-82
2022/03/06 00:38:23;;;;;;;6.43;4.93;;;4.20;99.90;;;;;;4869782;29;20387;-81
2022/03/06 00:41:08;;;;;;;7.73;5.37;;;4.10;99.90;;;;;;4869857;29;20784;-82
2022/03/06 00:43:52;;;;;;;8.17;6.30;;;4.10;99.90;;;;;;4869797;29;20417;-82
2022/03/06 00:46:36;;;;;;;8.23;5.30;;;4.20;99.90;;;;;;4869796;29;20365;-81
2022/03/06 00:49:21;;;;;;;8.10;5.70;;;4.10;99.90;;;;;;4870136;29;20380;-82
2022/03/06 00:52:05;;;;;;;7.07;5.70;;;4.10;99.90;;;;;;4870398;29;20365;-82
2022/03/06 00:54:50;;;;;;;8.23;5.07;;;4.20;99.90;;;;;;4869914;29;20468;-82
2022/03/06 00:57:35;;;;;;;9.93;5.20;;;4.10;99.90;;;;;;4870393;29;20486;-82
2022/03/06 01:00:20;;;;;;;12.20;5.80;;;4.10;99.90;;;;;;4869976;29;20390;-82
2022/03/06 01:03:05;;;;;;;8.50;5.17;;;4.10;99.90;;;;;;4881963;29;20500;-82
2022/03/06 01:05:50;;;;;;;7.90;5.53;;;4.00;99.90;;;;;;4870341;29;20444;-82
2022/03/06 01:08:35;;;;;;;9.90;5.70;;;4.00;99.90;;;;;;4887374;29;20465;-82
2022/03/06 01:11:20;;;;;;;11.90;6.30;;;3.90;99.90;;;;;;4878830;29;20388;-81
2022/03/06 01:14:04;;;;;;;7.80;5.50;;;3.90;99.90;;;;;;4880453;29;20464;-80
2022/03/06 01:17:10;;;;;;;7.60;6.23;;;3.90;99.90;;;;;;4880048;29;20417;-81
2022/03/06 01:19:55;;;;;;;12.90;5.47;;;3.90;99.90;;;;;;4872238;29;20442;-80
2022/03/06 01:22:39;;;;;;;7.63;4.77;;;3.90;99.90;;;;;;4851892;29;20501;-81
2022/03/06 01:25:24;;;;;;;9.80;6.00;;;3.90;99.90;;;;;;4861284;29;20437;-80
2022/03/06 01:28:08;;;;;;;6.07;5.17;;;3.80;99.90;;;;;;4849052;29;20465;-82
2022/03/06 01:30:53;;;;;;;4.17;3.80;;;3.80;99.90;;;;;;4848253;29;20909;-81
2022/03/06 01:33:37;;;;;;;5.90;4.50;;;3.90;99.90;;;;;;4848196;29;20411;-82
2022/03/06 01:36:21;;;;;;;6.37;5.70;;;3.80;99.90;;;;;;4849088;29;20421;-81
2022/03/06 01:39:07;;;;;;;6.83;5.67;;;3.80;99.90;;;;;;4849261;29;20416;-83
2022/03/06 01:41:51;;;;;;;7.63;6.03;;;3.80;99.90;;;;;;4848465;29;20507;-81
2022/03/06 01:44:36;;;;;;;9.47;5.00;;;3.80;99.90;;;;;;4848269;29;20419;-82
2022/03/06 01:47:46;;;;;;;10.23;6.70;;;3.70;99.90;;;;;;4848413;29;20468;-82
2022/03/06 01:50:32;;;;;;;6.87;6.17;;;3.60;99.90;;;;;;4859163;29;20373;-82
2022/03/06 01:53:17;;;;;;;8.17;4.80;;;3.60;99.90;;;;;;4855978;29;20488;-82
2022/03/06 01:56:01;;;;;;;7.63;5.10;;;3.60;99.90;;;;;;4870431;29;20828;-82
2022/03/06 01:58:47;;;;;;;7.90;5.37;;;3.60;99.90;;;;;;4869668;29;20462;-83
2022/03/06 02:01:32;;;;;;;6.70;5.10;;;3.70;99.90;;;;;;4870850;29;20475;-79
2022/03/06 02:04:16;;;;;;;5.23;4.53;;;3.70;99.90;;;;;;4869210;29;20435;-82
2022/03/06 02:07:01;;;;;;;13.37;6.17;;;3.60;99.90;;;;;;4868987;29;20516;-82
2022/03/06 02:09:46;;;;;;;10.20;5.57;;;3.60;99.90;;;;;;4868872;29;20407;-82
2022/03/06 02:12:31;;;;;;;9.17;5.30;;;3.50;99.90;;;;;;4868417;29;20395;-82
2022/03/06 02:15:16;;;;;;;9.13;6.70;;;3.50;99.90;;;;;;4867823;29;20415;-82
2022/03/06 02:18:01;;;;;;;9.63;6.97;;;3.40;99.90;;;;;;4868971;29;20851;-81
2022/03/06 02:20:47;;;;;;;7.03;6.43;;;3.50;99.90;;;;;;4869137;29;20427;-82
2022/03/06 02:23:36;;;;;;;9.43;6.40;;;3.50;99.90;;;;;;4868599;29;20507;-81
2022/03/06 02:26:20;;;;;;;7.00;5.90;;;3.50;99.90;;;;;;4855249;29;20419;-82
2022/03/06 02:29:05;;;;;;;8.57;5.97;;;3.40;99.90;;;;;;4869264;29;20463;-82
2022/03/06 02:31:50;;;;;;;5.03;4.60;;;3.40;99.90;;;;;;4869313;29;20435;-82
2022/03/06 02:34:36;;;;;;;8.30;6.00;;;3.30;99.90;;;;;;4869755;29;20399;-82
2022/03/06 02:37:21;;;;;;;10.70;5.20;;;3.30;99.90;;;;;;4887432;29;20503;-82
2022/03/06 02:40:08;;;;;;;8.20;5.90;;;3.30;99.90;;;;;;4880285;29;20417;-80
2022/03/06 02:42:54;;;;;;;10.90;5.60;;;3.30;99.90;;;;;;4877289;29;20574;-80
2022/03/06 02:45:40;;;;;;;11.07;6.20;;;3.40;99.90;;;;;;4878452;29;20417;-80
2022/03/06 02:48:25;;;;;;;32.70;6.17;;;3.30;99.90;;;;;;4877857;29;20385;-81
2022/03/06 02:51:26;;;;;;;6.80;5.53;;;3.30;99.90;;;;;;4866647;29;20418;-82
2022/03/06 02:54:12;;;;;;;7.80;4.90;;;3.30;99.90;;;;;;4867981;29;20448;-81
2022/03/06 02:56:57;;;;;;;8.73;6.87;;;3.30;99.90;;;;;;4880081;29;20406;-82
2022/03/06 02:59:42;;;;;;;7.80;6.13;;;3.30;99.90;;;;;;4867852;29;20531;-81
2022/03/06 03:02:46;;;;;;;9.33;6.30;;;3.30;99.90;;;;;;4867931;29;20454;-81
2022/03/06 03:05:31;;;;;;;8.70;6.17;;;3.30;99.90;;;;;;4848031;29;20387;-80
2022/03/06 03:08:15;;;;;;;7.97;6.60;;;3.30;99.90;;;;;;4847383;29;20449;-80
2022/03/06 03:11:00;;;;;;;8.67;6.23;;;3.30;99.90;;;;;;4849110;29;20445;-81
2022/03/06 03:13:44;;;;;;;8.43;5.23;;;3.30;99.90;;;;;;4851354;29;20400;-80
2022/03/06 03:16:29;;;;;;;10.30;6.47;;;3.30;99.90;;;;;;4851155;29;20434;-80
2022/03/06 03:19:14;;;;;;;14.47;7.80;;;3.20;99.90;;;;;;4851836;29;20461;-81
2022/03/06 03:22:00;;;;;;;11.70;7.53;;;3.20;99.90;;;;;;4851126;29;20455;-81
2022/03/06 03:24:44;;;;;;;6.37;5.70;;;3.20;99.90;;;;;;4851495;29;20404;-81
2022/03/06 03:27:29;;;;;;;6.37;4.90;;;3.20;99.90;;;;;;4850950;29;20383;-81
2022/03/06 03:30:14;;;;;;;13.60;7.40;;;3.20;99.90;;;;;;4851027;29;20404;-81
2022/03/06 03:32:59;;;;;;;8.10;6.70;;;3.10;99.90;;;;;;4852719;29;20418;-83
2022/03/06 03:35:43;;;;;;;8.07;5.70;;;3.10;99.90;;;;;;4866303;29;20471;-79
2022/03/06 03:38:28;;;;;;;7.53;5.40;;;3.10;99.90;;;;;;4880923;29;20427;-80
2022/03/06 03:41:12;;;;;;;7.90;7.10;;;3.10;99.90;;;;;;4881784;29;20398;-79
2022/03/06 03:44:17;;;;;;;8.80;5.93;;;3.10;99.90;;;;;;4881242;29;20425;-79
2022/03/06 03:47:01;;;;;;;8.13;5.67;;;3.10;99.90;;;;;;4864080;29;20408;-81
2022/03/06 03:49:48;;;;;;;11.17;6.63;;;3.00;99.90;;;;;;4863730;29;20415;-80
2022/03/06 03:52:32;;;;;;;12.43;5.90;;;3.10;99.90;;;;;;4861576;29;20431;-80
2022/03/06 03:55:18;;;;;;;8.03;4.83;;;3.10;99.90;;;;;;4860834;29;20454;-79
2022/03/06 03:58:03;;;;;;;5.97;5.43;;;3.00;99.90;;;;;;4860720;29;20475;-79
2022/03/06 04:00:54;;;;;;;6.20;5.17;;;3.00;99.90;;;;;;4860426;29;20441;-81
2022/03/06 04:03:39;;;;;;;10.07;5.70;;;3.00;99.90;;;;;;4849497;29;20524;-81
2022/03/06 04:06:43;;;;;;;8.13;5.70;;;3.00;99.90;;;;;;4850307;29;20443;-81
2022/03/06 04:09:28;;;;;;;8.53;5.13;;;3.00;99.90;;;;;;4837298;29;20411;-82
2022/03/06 04:12:12;;;;;;;14.77;5.93;;;3.00;99.90;;;;;;4850775;29;20837;-81
2022/03/06 04:14:57;;;;;;;8.80;6.40;;;2.90;99.90;;;;;;4850371;29;20526;-80
2022/03/06 04:17:42;;;;;;;7.23;5.37;;;2.90;99.90;;;;;;4836904;29;20386;-81
2022/03/06 04:20:27;;;;;;;9.60;6.00;;;2.90;99.90;;;;;;4850602;29;20407;-81
2022/03/06 04:23:12;;;;;;;8.20;5.50;;;2.90;99.90;;;;;;4850109;29;20438;-80
2022/03/06 04:25:57;;;;;;;11.30;6.40;;;2.80;99.90;;;;;;4849820;29;20490;-82
2022/03/06 04:28:41;;;;;;;9.77;5.03;;;2.80;99.90;;;;;;4831103;29;20417;-81
2022/03/06 04:31:26;;;;;;;6.97;4.57;;;2.90;99.90;;;;;;4863023;29;20791;-82
2022/03/06 04:34:10;;;;;;;8.23;5.37;;;2.90;99.90;;;;;;4837862;29;20423;-82
2022/03/06 04:36:55;;;;;;;7.80;4.93;;;2.90;99.90;;;;;;4850436;29;20418;-81
2022/03/06 04:39:39;;;;;;;13.97;7.50;;;2.90;99.90;;;;;;4864872;29;20418;-79
2022/03/06 04:42:23;;;;;;;9.10;5.00;;;3.00;99.90;;;;;;4891360;29;20438;-79
2022/03/06 04:45:10;;;;;;;9.97;6.80;;;3.00;99.90;;;;;;4879541;29;20420;-79
2022/03/06 04:47:54;;;;;;;6.93;4.20;;;3.00;99.90;;;;;;4874154;29;20373;-81
2022/03/06 04:50:39;;;;;;;6.43;4.70;;;3.00;99.90;;;;;;4890002;29;20377;-80
2022/03/06 04:53:24;;;;;;;11.03;5.50;;;3.10;99.90;;;;;;4878657;29;20419;-79
2022/03/06 04:56:09;;;;;;;8.50;6.50;;;3.00;99.90;;;;;;4877464;29;20445;-81
2022/03/06 04:58:53;;;;;;;11.77;7.83;;;3.10;99.90;;;;;;4870506;29;20461;-81
2022/03/06 05:01:37;;;;;;;11.03;6.90;;;3.10;99.90;;;;;;4870024;29;20514;-82
2022/03/06 05:04:22;;;;;;;8.40;6.60;;;3.10;99.90;;;;;;4869147;29;20395;-82
2022/03/06 05:07:07;;;;;;;8.57;6.30;;;3.10;99.90;;;;;;4869803;29;20443;-81
2022/03/06 05:09:51;;;;;;;10.63;6.13;;;3.10;99.90;;;;;;4870993;29;20752;-80
2022/03/06 05:12:38;;;;;;;9.23;5.93;;;3.10;99.90;;;;;;4877321;29;20425;-80
2022/03/06 05:15:22;;;;;;;6.70;6.00;;;3.20;99.90;;;;;;4870313;29;20403;-82
2022/03/06 05:18:07;;;;;;;7.07;5.13;;;3.20;99.90;;;;;;4870539;29;20398;-81
2022/03/06 05:20:52;;;;;;;7.17;5.20;;;3.20;99.90;;;;;;4870083;29;20402;-82
2022/03/06 05:23:36;;;;;;;8.37;4.70;;;3.20;99.90;;;;;;4872479;29;20476;-82
2022/03/06 05:26:21;;;;;;;8.53;5.20;;;3.20;99.90;;;;;;4874094;29;20407;-82
2022/03/06 05:29:06;;;;;;;9.73;4.60;;;3.20;99.90;;;;;;4874453;29;20722;-81
2022/03/06 05:31:50;;;;;;;7.80;6.07;;;3.20;99.90;;;;;;4875373;29;20399;-81
2022/03/06 05:34:35;;;;;;;9.03;5.50;;;3.20;99.90;;;;;;4876541;29;20419;-81
2022/03/06 05:37:20;;;;;;;6.50;5.40;;;3.10;99.90;;;;;;4877556;29;20411;-83
2022/03/06 05:40:06;;;;;;;7.43;5.77;;;3.10;99.90;;;;;;4876873;29;20395;-82
2022/03/06 05:42:50;;;;;;;8.43;4.73;;;3.10;99.90;;;;;;4877357;29;20458;-82
2022/03/06 05:45:34;;;;;;;7.83;6.20;;;3.10;99.90;;;;;;4876887;29;20427;-83
2022/03/06 05:48:20;;;;;;;6.10;5.13;;;3.10;99.90;;;;;;4879029;29;20399;-80
2022/03/06 05:51:05;;;;;;;8.43;6.33;;;3.10;99.90;;;;;;4882470;29;20395;-81
2022/03/06 05:53:49;;;;;;;10.80;6.37;;;3.20;99.90;;;;;;4882464;29;20424;-82
2022/03/06 05:56:34;;;;;;;9.57;5.37;;;3.20;99.90;;;;;;4881471;29;20468;-79
2022/03/06 05:59:19;;;;;;;8.63;4.77;;;3.20;99.90;;;;;;4881901;29;20512;-80
2022/03/06 06:02:04;;;;;;;11.23;6.10;;;3.20;99.90;;;;;;4882685;29;20458;-79
2022/03/06 06:04:49;;;;;;;7.83;5.73;;;3.20;99.90;;;;;;4881175;29;20447;-83
2022/03/06 06:07:35;;;;;;;14.00;6.70;;;3.20;99.90;;;;;;4890314;29;20420;-81
2022/03/06 06:10:20;;;;;;;6.77;4.87;;;3.30;99.90;;;;;;4876048;29;20481;-82
2022/03/06 06:13:08;;;;;;;9.27;5.70;;;3.20;99.90;;;;;;4868656;29;20452;-81
2022/03/06 06:15:53;;;;;;;10.73;6.10;;;3.20;99.90;;;;;;4881621;29;20841;-82
2022/03/06 06:18:38;;;;;;;9.27;5.63;;;3.20;99.90;;;;;;4869005;29;20456;-83
2022/03/06 06:21:22;;;;;;;6.87;5.93;;;3.20;99.90;;;;;;4871998;29;20386;-81
2022/03/06 06:24:07;;;;;;;10.73;4.90;;;3.20;99.90;;;;;;4884117;29;20476;-84
2022/03/06 06:26:55;;;;;;;9.60;6.60;;;3.20;99.90;;;;;;4872285;29;20427;-79
2022/03/06 06:29:39;;;;;;;12.27;8.40;;;3.20;99.90;;;;;;4874715;29;20430;-82
2022/03/06 06:32:24;;;;;;;18.47;10.60;;;3.20;99.90;;;;;;4872633;29;20412;-83
2022/03/06 06:35:08;;;;;;;12.63;7.40;;;3.30;99.90;;;;;;4883514;29;20395;-82
2022/03/06 06:37:53;;;;;;;7.97;6.80;;;3.30;99.90;;;;;;4871176;29;20398;-82
2022/03/06 06:40:38;;;;;;;9.73;7.03;;;3.30;99.90;;;;;;4870805;29;20398;-81
2022/03/06 06:43:23;;;;;;;17.00;10.73;;;3.30;99.90;;;;;;4869743;29;20488;-82
2022/03/06 06:46:08;;;;;;;7.40;5.67;;;3.30;99.90;;;;;;4874423;29;20398;-81
2022/03/06 06:48:53;;;;;;;9.70;5.40;;;3.40;99.90;;;;;;4873544;29;20427;-81
2022/03/06 06:51:39;;;;;;;9.07;7.07;;;3.40;99.90;;;;;;4873408;29;20406;-83
2022/03/06 06:54:23;;;;;;;10.20;7.00;;;3.40;99.90;;;;;;4857892;29;20440;-82
2022/03/06 06:57:08;;;;;;;7.63;6.10;;;3.50;99.90;;;;;;4871398;29;20423;-82
2022/03/06 06:59:52;;;;;;;7.63;5.87;;;3.50;99.90;;;;;;4871900;29;20391;-82
2022/03/06 07:02:39;;;;;;;14.90;9.40;;;3.60;99.90;;;;;;4872490;29;20454;-82
2022/03/06 07:05:24;;;;;;;14.60;8.43;;;3.60;99.90;;;;;;4870304;29;20417;-83
2022/03/06 07:08:08;;;;;;;11.80;6.27;;;3.60;99.90;;;;;;4873409;29;20399;-82
2022/03/06 07:10:57;;;;;;;12.77;7.43;;;3.60;99.90;;;;;;4884209;29;20452;-83
2022/03/06 07:13:42;;;;;;;15.60;8.17;;;3.70;99.90;;;;;;4871510;29;20418;-83
2022/03/06 07:16:27;;;;;;;10.07;5.63;;;3.70;99.90;;;;;;4871625;29;20888;-81
2022/03/06 07:19:13;;;;;;;9.20;8.30;;;3.70;99.90;;;;;;4871175;29;20386;-81
2022/03/06 07:21:59;;;;;;;7.03;5.97;;;3.80;99.90;;;;;;4872120;29;20446;-82
2022/03/06 07:24:44;;;;;;;8.23;6.03;;;3.90;99.90;;;;;;4857653;29;20410;-82
2022/03/06 07:27:28;;;;;;;9.90;6.20;;;3.90;99.90;;;;;;4872403;29;20406;-82
2022/03/06 07:30:14;;;;;;;16.30;10.17;;;4.00;99.90;;;;;;4871088;29;20428;-81
2022/03/06 07:33:00;;;;;;;15.43;7.87;;;4.10;99.90;;;;;;4871685;29;20392;-81
2022/03/06 07:35:44;;;;;;;13.97;8.80;;;4.10;99.90;;;;;;4872813;29;20440;-82
2022/03/06 07:38:30;;;;;;;20.37;8.20;;;4.20;99.90;;;;;;4873862;29;20471;-82
2022/03/06 07:41:14;;;;;;;10.03;6.73;;;4.20;99.90;;;;;;4873267;29;20399;-80
2022/03/06 07:43:59;;;;;;;7.77;5.63;;;4.30;99.90;;;;;;4879000;29;20579;-82
2022/03/06 07:46:43;;;;;;;7.83;5.60;;;4.20;99.90;;;;;;4892957;29;20537;-80
2022/03/06 07:49:30;;;;;;;10.00;8.00;;;4.30;99.90;;;;;;4881795;29;20383;-80
2022/03/06 07:52:15;;;;;;;7.73;6.93;;;4.30;99.90;;;;;;4882276;29;20386;-78
2022/03/06 07:55:00;;;;;;;10.63;7.33;;;4.40;99.90;;;;;;4894462;29;20419;-79
2022/03/06 07:57:45;;;;;;;14.97;7.70;;;4.50;99.90;;;;;;4892973;29;20444;-79
2022/03/06 08:00:29;;;;;;;10.43;6.33;;;4.60;99.90;;;;;;4875768;29;20747;-82
2022/03/06 08:03:15;;;;;;;14.93;8.57;;;4.50;99.90;;;;;;4870557;29;20808;-82
2022/03/06 08:06:00;;;;;;;11.07;9.00;;;4.60;99.90;;;;;;4870834;29;20416;-79
2022/03/06 08:08:45;;;;;;;13.50;7.97;;;4.70;99.90;;;;;;4881279;29;20386;-80
2022/03/06 08:11:29;;;;;;;6.83;5.87;;;4.50;99.90;;;;;;4880910;29;20395;-82
2022/03/06 08:14:14;;;;;;;15.93;8.13;;;4.60;99.90;;;;;;4879665;29;20402;-80
2022/03/06 08:16:58;;;;;;;11.97;7.50;;;4.80;99.90;;;;;;4878311;29;20460;-81
2022/03/06 08:19:43;;;;;;;9.83;7.27;;;4.80;99.90;;;;;;4872189;29;20418;-81
2022/03/06 08:22:27;;;;;;;9.43;6.37;;;4.90;99.90;;;;;;4871615;29;20451;-81
2022/03/06 08:25:11;;;;;;;11.50;7.60;;;4.90;99.90;;;;;;4871518;29;20398;-82
2022/03/06 08:27:56;;;;;;;11.00;7.73;;;5.00;99.90;;;;;;4871304;29;21021;-81
2022/03/06 08:30:41;;;;;;;11.07;9.07;;;5.00;99.90;;;;;;4870252;29;20452;-81
2022/03/06 08:33:25;;;;;;;13.27;8.53;;;5.10;99.90;;;;;;4882951;29;20399;-83
2022/03/06 08:36:10;;;;;;;13.50;7.93;;;5.20;99.90;;;;;;4870664;29;20409;-83
2022/03/06 08:38:54;;;;;;;7.97;6.83;;;5.30;99.90;;;;;;4871658;29;20395;-83
2022/03/06 08:41:39;;;;;;;12.30;8.37;;;5.30;99.90;;;;;;4863510;29;20412;-83
2022/03/06 08:44:24;;;;;;;7.67;6.10;;;5.30;99.90;;;;;;4850692;29;20392;-82
2022/03/06 08:47:09;;;;;;;18.10;11.03;;;5.20;99.90;;;;;;4841335;29;20402;-83
2022/03/06 08:49:55;;;;;;;11.40;8.70;;;5.20;99.90;;;;;;4850311;29;20438;-83
2022/03/06 08:52:39;;;;;;;11.00;8.60;;;5.20;99.90;;;;;;4849830;29;20395;-83
2022/03/06 08:55:24;;;;;;;8.37;7.57;;;5.40;99.90;;;;;;4849571;29;20499;-83
2022/03/06 08:58:09;;;;;;;6.90;6.20;;;5.40;99.90;;;;;;4849374;29;20445;-83
2022/03/06 09:00:54;;;;;;;6.80;6.07;;;5.60;99.90;;;;;;4849571;29;20777;-82
2022/03/06 09:03:38;;;;;;;9.43;7.80;;;5.70;99.90;;;;;;4850079;29;20592;-83
2022/03/06 09:06:23;;;;;;;10.30;6.90;;;5.70;99.90;;;;;;4854312;29;20403;-83
2022/03/06 09:09:07;;;;;;;10.47;9.10;;;5.90;99.90;;;;;;4850234;29;20399;-82
2022/03/06 09:11:51;;;;;;;8.87;7.60;;;5.90;99.90;;;;;;4857115;29;20407;-82
2022/03/06 09:14:39;;;;;;;9.93;8.57;;;5.80;99.90;;;;;;4877087;29;20399;-78
2022/03/06 09:17:24;;;;;;;10.93;8.93;;;5.90;99.90;;;;;;4881238;29;20467;-82
2022/03/06 09:20:29;;;;;;;10.30;8.40;;;5.90;99.90;;;;;;4895366;29;20395;-82
2022/03/06 09:23:13;;;;;;;17.87;7.33;;;5.70;99.90;;;;;;4880274;29;20461;-82
2022/03/06 09:25:58;;;;;;;8.30;6.37;;;5.00;99.90;;;;;;4859494;29;20460;-82
2022/03/06 09:28:44;;;;;;;12.87;5.70;;;5.10;99.90;;;;;;4867806;29;20391;-82
2022/03/06 09:31:30;;;;;;;8.77;6.50;;;5.10;99.90;;;;;;4868215;29;20456;-82
2022/03/06 09:34:14;;;;;;;10.10;6.00;;;5.10;99.90;;;;;;4867569;29;20407;-82
2022/03/06 09:36:59;;;;;;;6.30;4.73;;;5.10;99.90;;;;;;4868074;29;20423;-82
2022/03/06 09:39:43;;;;;;;8.53;5.83;;;4.60;99.90;;;;;;4868069;29;20440;-81
2022/03/06 09:42:29;;;;;;;6.57;5.63;;;4.70;99.90;;;;;;4867713;29;20470;-82
2022/03/06 09:45:15;;;;;;;6.30;5.67;;;4.30;99.90;;;;;;4868732;29;20809;-82
2022/03/06 09:48:00;;;;;;;7.37;6.00;;;4.50;99.90;;;;;;4875610;29;20415;-81
2022/03/06 09:50:45;;;;;;;6.70;6.00;;;4.50;99.90;;;;;;4881398;29;20416;-82
2022/03/06 09:53:30;;;;;;;8.07;6.90;;;4.50;99.90;;;;;;4881005;29;20418;-82
2022/03/06 09:56:15;;;;;;;8.07;6.83;;;4.70;99.90;;;;;;4880242;29;20431;-82
2022/03/06 09:58:59;;;;;;;6.20;5.00;;;4.80;99.90;;;;;;4877828;29;20457;-83
2022/03/06 10:01:44;;;;;;;4.60;3.90;;;5.00;99.90;;;;;;4870018;29;20402;-83
2022/03/06 10:04:32;;;;;;;5.07;4.53;;;4.90;99.90;;;;;;4871070;29;20407;-82
2022/03/06 10:07:19;;;;;;;7.47;5.00;;;4.80;99.90;;;;;;4871952;29;20499;-82
2022/03/06 10:10:03;;;;;;;5.87;4.70;;;4.70;99.90;;;;;;4871702;29;20519;-80
2022/03/06 10:12:48;;;;;;;4.83;4.30;;;4.60;99.90;;;;;;4870300;29;20411;-81
2022/03/06 10:15:33;;;;;;;4.03;3.60;;;4.70;99.90;;;;;;4870676;29;20452;-82
2022/03/06 10:18:17;;;;;;;5.33;4.73;;;4.70;99.90;;;;;;4881307;29;20394;-81
2022/03/06 10:21:18;;;;;;;6.83;5.40;;;4.80;99.90;;;;;;4872681;29;20381;-80
2022/03/06 10:24:06;;;;;;;9.43;4.93;;;5.00;99.90;;;;;;4871713;29;20407;-79
2022/03/06 10:26:51;;;;;;;5.07;4.50;;;5.10;99.90;;;;;;4884121;29;20394;-79
2022/03/06 10:29:36;;;;;;;4.07;3.73;;;4.90;99.90;;;;;;4884295;29;20432;-79
2022/03/06 10:32:23;;;;;;;15.13;4.30;;;4.80;99.80;;;;;;4869931;29;20418;-80
2022/03/06 10:35:08;;;;;;;5.73;4.50;;;5.10;99.90;;;;;;4857111;29;20414;-80
2022/03/06 10:37:53;;;;;;;5.70;5.17;;;5.00;97.60;;;;;;4884358;29;20411;-80
2022/03/06 10:40:38;;;;;;;5.53;5.03;;;4.80;97.00;;;;;;4884893;29;20496;-80
2022/03/06 10:43:26;;;;;;;4.73;4.33;;;4.80;98.80;;;;;;4872196;29;20454;-80
2022/03/06 10:46:16;;;;;;;7.73;4.20;;;4.90;96.20;;;;;;4883822;29;20430;-80
2022/03/06 10:49:08;;;;;;;6.03;5.40;;;5.70;96.60;;;;;;4871524;29;20399;-80
2022/03/06 10:51:52;;;;;;;7.23;4.50;;;5.60;95.10;;;;;;4871728;29;20402;-80
2022/03/06 10:54:54;;;;;;;7.10;4.77;;;5.80;94.80;;;;;;4871218;29;20884;-80
2022/03/06 10:57:40;;;;;;;7.67;5.47;;;5.70;95.60;;;;;;4870948;29;20413;-80
2022/03/06 11:00:24;;;;;;;10.20;6.50;;;5.80;99.90;;;;;;4871114;29;20420;-79
2022/03/06 11:03:12;;;;;;;7.00;6.20;;;5.70;99.90;;;;;;4870114;29;20530;-80
2022/03/06 11:05:58;;;;;;;5.20;4.70;;;6.00;97.90;;;;;;4883587;29;20415;-80
2022/03/06 11:08:43;;;;;;;5.50;5.10;;;5.60;95.40;;;;;;4871986;29;20398;-81
2022/03/06 11:11:28;;;;;;;5.17;4.77;;;5.60;94.90;;;;;;4871469;29;20953;-80
2022/03/06 11:14:14;;;;;;;8.50;5.53;;;4.70;94.00;;;;;;4871396;29;20499;-80
2022/03/06 11:17:00;;;;;;;6.33;5.17;;;4.60;95.90;;;;;;4871281;29;20452;-80
2022/03/06 11:19:44;;;;;;;6.67;5.33;;;4.80;95.90;;;;;;4870535;29;20756;-78
2022/03/06 11:22:42;;;;;;;6.57;4.80;;;4.60;96.10;;;;;;4871724;29;20538;-81
2022/03/06 11:25:29;;;;;;;5.77;5.30;;;4.20;95.60;;;;;;4873754;29;20400;-77
2022/03/06 11:28:26;;;;;;;9.53;6.73;;;4.50;96.70;;;;;;4872723;29;20387;-80
2022/03/06 11:31:11;;;;;;;6.37;5.77;;;4.40;97.20;;;;;;4869417;29;20754;-80
2022/03/06 11:34:03;;;;;;;7.53;6.37;;;4.90;99.00;;;;;;4874737;29;20438;-78
2022/03/06 11:36:49;;;;;;;7.63;6.73;;;5.00;99.90;;;;;;4893481;29;20543;-78
2022/03/06 11:39:54;;;;;;;5.97;5.40;;;5.50;97.90;;;;;;4890884;29;20427;-80
2022/03/06 11:42:53;;;;;;;7.27;5.83;;;5.30;95.80;;;;;;4880232;29;20529;-81
2022/03/06 11:45:47;;;;;;;5.60;4.93;;;4.80;94.10;;;;;;4870912;29;20391;-80
2022/03/06 11:49:03;;;;;;;7.27;5.80;;;5.10;95.20;;;;;;4870302;29;20487;-81
2022/03/06 11:51:48;;;;;;;6.07;5.40;;;5.50;95.40;;;;;;4878927;29;20391;-80
2022/03/06 11:54:44;;;;;;;9.77;6.63;;;5.10;94.80;;;;;;4869955;29;20902;-80
2022/03/06 11:57:44;;;;;;;8.97;5.90;;;5.20;96.60;;;;;;4870967;29;20391;-79
2022/03/06 12:00:30;;;;;;;6.80;6.10;;;5.20;98.30;;;;;;4870358;29;20507;-80
2022/03/06 12:03:16;;;;;;;10.70;7.30;;;5.10;97.10;;;;;;4870691;29;20635;-79
2022/03/06 12:06:00;;;;;;;9.40;6.40;;;5.30;99.90;;;;;;4881853;29;20457;-78
2022/03/06 12:08:46;;;;;;;7.07;6.40;;;5.60;99.90;;;;;;4870956;29;20495;-80
2022/03/06 12:11:31;;;;;;;8.10;6.77;;;5.60;99.90;;;;;;4884062;29;20949;-81
2022/03/06 12:14:22;;;;;;;8.93;5.90;;;5.60;99.90;;;;;;4883250;29;20407;-81
2022/03/06 12:17:31;;;;;;;14.00;5.97;;;5.70;98.40;;;;;;4873113;29;20424;-80
2022/03/06 12:20:23;;;;;;;6.70;6.20;;;5.60;99.90;;;;;;4872335;29;20395;-80
2022/03/06 12:23:20;;;;;;;8.83;5.87;;;5.40;98.90;;;;;;4875242;29;20477;-78
2022/03/06 12:26:05;;;;;;;9.30;6.50;;;5.20;99.90;;;;;;4886693;29;20399;-79
2022/03/06 12:28:54;;;;;;;7.47;5.77;;;5.00;99.90;;;;;;4871027;29;20403;-79
2022/03/06 12:31:40;;;;;;;7.43;5.80;;;4.90;99.90;;;;;;4870003;29;20399;-79
2022/03/06 12:34:40;;;;;;;7.60;6.90;;;4.80;99.90;;;;;;4869441;29;20403;-80
2022/03/06 12:37:26;;;;;;;7.43;6.53;;;4.60;99.90;;;;;;4869932;29;20810;-80
2022/03/06 12:40:14;;;;;;;8.73;7.10;;;4.90;99.90;;;;;;4868850;29;20427;-80
2022/03/06 12:43:03;;;;;;;13.40;8.40;;;5.10;99.90;;;;;;4869847;29;20511;-79
2022/03/06 12:45:50;;;;;;;14.53;8.43;;;5.30;99.90;;;;;;4881424;29;20818;-80
2022/03/06 12:48:35;;;;;;;7.83;6.50;;;5.20;99.90;;;;;;4882130;29;20518;-77
2022/03/06 12:51:30;;;;;;;10.87;8.93;;;5.30;99.90;;;;;;4857004;29;20443;-79
2022/03/06 12:54:18;;;;;;;10.80;7.77;;;5.20;99.90;;;;;;4871179;29;20395;-79
2022/03/06 12:57:03;;;;;;;11.50;8.33;;;5.10;99.90;;;;;;4878950;29;20496;-79
2022/03/06 12:59:48;;;;;;;8.20;6.57;;;4.80;99.90;;;;;;4876593;29;20457;-82
2022/03/06 13:02:36;;;;;;;15.20;7.67;;;4.70;99.90;;;;;;4878722;29;20503;-80
2022/03/06 13:05:23;;;;;;;10.40;7.30;;;4.70;99.90;;;;;;4866889;29;20881;-81
2022/03/06 13:08:07;;;;;;;9.30;7.10;;;4.80;99.90;;;;;;4865345;29;20447;-80
2022/03/06 13:10:52;;;;;;;13.20;7.13;;;4.60;99.90;;;;;;4879963;29;20395;-80
2022/03/06 13:13:38;;;;;;;5.93;5.20;;;4.70;99.90;;;;;;4866334;29;20398;-81
2022/03/06 13:16:25;;;;;;;9.60;6.20;;;4.60;99.90;;;;;;4867889;29;20475;-81
2022/03/06 13:19:09;;;;;;;7.80;5.77;;;4.80;99.90;;;;;;4867310;29;20430;-82
2022/03/06 13:21:55;;;;;;;8.80;6.80;;;4.40;99.90;;;;;;4867057;29;22816;-82
2022/03/06 13:25:00;;;;;;;11.23;7.13;;;4.40;99.90;;;;;;4867037;29;20499;-81
2022/03/06 13:28:10;;;;;;;9.33;8.30;;;4.60;99.90;;;;;;4864803;29;20435;-81
2022/03/06 13:30:59;;;;;;;11.00;6.67;;;5.00;99.90;;;;;;4848179;29;20814;-81
2022/03/06 13:33:44;;;;;;;6.43;5.87;;;5.20;99.90;;;;;;4846729;29;20408;-80
2022/03/06 13:36:29;;;;;;;14.70;7.87;;;4.80;99.90;;;;;;4846200;29;20441;-82
2022/03/06 13:39:16;;;;;;;8.67;6.50;;;4.80;99.90;;;;;;4834850;29;20443;-81
2022/03/06 13:42:00;;;;;;;8.57;6.70;;;4.80;99.90;;;;;;4833797;29;20489;-81
2022/03/06 13:45:00;;;;;;;6.60;5.93;;;4.80;99.90;;;;;;4846790;29;20423;-81
2022/03/06 13:47:51;;;;;;;7.17;6.47;;;5.10;99.90;;;;;;4821155;29;20440;-81
2022/03/06 13:50:46;;;;;;;8.50;7.60;;;4.80;99.90;;;;;;4851763;29;20420;-82
2022/03/06 13:53:31;;;;;;;9.50;7.73;;;4.80;99.90;;;;;;4861954;29;20856;-80
2022/03/06 13:56:29;;;;;;;7.40;6.43;;;4.80;99.90;;;;;;4848440;29;20447;-81
2022/03/06 13:59:29;;;;;;;13.20;6.37;;;5.00;99.90;;;;;;4846821;29;20487;-81
2022/03/06 14:02:13;;;;;;;11.63;7.17;;;5.10;99.90;;;;;;4846252;29;20471;-82
2022/03/06 14:05:03;;;;;;;6.17;5.03;;;5.10;99.90;;;;;;4849018;29;20399;-81
2022/03/06 14:07:48;;;;;;;6.60;6.07;;;4.80;99.90;;;;;;4848949;29;20395;-81
2022/03/06 14:10:41;;;;;;;10.83;6.40;;;4.70;99.90;;;;;;4849309;29;20407;-81
2022/03/06 14:13:32;;;;;;;6.10;5.50;;;4.70;99.90;;;;;;4847311;29;20457;-81
2022/03/06 14:16:30;;;;;;;7.10;6.40;;;4.90;99.90;;;;;;4847045;29;20434;-82
2022/03/06 14:19:16;;;;;;;9.67;6.80;;;5.10;99.90;;;;;;4850906;29;20422;-81
2022/03/06 14:22:04;;;;;;;7.27;6.00;;;5.10;99.90;;;;;;4855169;29;20523;-81
2022/03/06 14:24:48;;;;;;;6.83;5.80;;;5.00;99.90;;;;;;4853028;29;20424;-82
2022/03/06 14:27:34;;;;;;;10.43;6.10;;;5.20;99.90;;;;;;4853840;29;20399;-81
2022/03/06 14:30:19;;;;;;;7.50;6.10;;;4.70;99.90;;;;;;4850906;29;20453;-81
2022/03/06 14:33:09;;;;;;;11.90;6.67;;;4.90;99.90;;;;;;4847049;29;20446;-81
2022/03/06 14:35:54;;;;;;;6.77;6.10;;;4.80;99.90;;;;;;4852251;29;20457;-81